Time;durP1;ratioP1;P1;durP2;ratioP2;P2;SDS_P1;SDS_P2;PMS_P1;PMS_P2;Temp;Humidity;BMP_temperature;BMP_pressure;BME280_temperature;BME280_humidity;BME280_pressure;Samples;Min_cycle;Max_cycle;Signal;HPM_P1;HPM_P2
2021/10/24 00:00:00;;;;;;;;;;;7.00;99.70;7.50;100386.00;;;;332368;29;90895;-90
2021/10/24 00:00:12;;;;;;;;;;;7.00;99.70;7.50;100386.00;;;;330220;29;83462;-90
2021/10/24 00:00:25;;;;;;;;;;;7.00;99.60;7.40;100378.00;;;;333441;29;90274;-91
2021/10/24 00:00:37;;;;;;;;;;;7.00;99.60;7.40;100380.00;;;;335415;29;83279;-90
2021/10/24 00:00:49;;;;;;;;;;;7.00;99.60;7.40;100387.00;;;;333580;29;91215;-91
2021/10/24 00:01:01;;;;;;;;;;;7.00;99.60;7.40;100384.00;;;;333788;29;82593;-90
2021/10/24 00:01:13;;;;;;;;;;;7.00;99.60;7.40;100383.00;;;;332305;29;91315;-90
2021/10/24 00:01:25;;;;;;;;;;;7.00;99.70;7.60;100384.00;;;;334024;29;83403;-91
2021/10/24 00:01:37;;;;;;;;;;;7.00;99.60;7.60;100389.00;;;;336204;28;92192;-91
2021/10/24 00:01:49;;;;;;;;;;;7.00;99.60;7.50;100385.00;;;;332546;28;83386;-91
2021/10/24 00:02:01;;;;;;;;;;;7.00;99.70;7.60;100389.00;;;;329717;29;91335;-91
2021/10/24 00:02:13;;;;;;;;;;;7.00;99.70;7.60;100382.00;;;;335278;29;82474;-91
2021/10/24 00:02:25;;;;;;;;;;;7.00;99.70;7.50;100380.00;;;;332255;28;92546;-90
2021/10/24 00:02:37;;;;;;;;;;;7.00;99.70;7.50;100382.00;;;;330210;29;82482;-91
2021/10/24 00:02:49;;;;;;;;;;;7.00;99.60;7.50;100382.00;;;;333621;29;92506;-91
2021/10/24 00:03:01;;;;;;;;;;;7.00;99.70;7.60;100379.00;;;;335248;29;82548;-91
2021/10/24 00:03:13;;;;;;;;;;;7.00;99.60;7.70;100377.00;;;;331083;29;91300;-91
2021/10/24 00:03:25;;;;;;;;;;;7.00;99.60;7.60;100381.00;;;;333998;29;82600;-91
2021/10/24 00:03:36;;;;;;;;;;;7.00;99.60;7.60;100379.00;;;;334947;29;90323;-91
2021/10/24 00:03:48;;;;;;;;;;;7.00;99.60;7.60;100382.00;;;;329944;29;83269;-91
2021/10/24 00:04:01;;;;;;;;;;;7.00;99.60;7.60;100377.00;;;;332212;29;91743;-91
2021/10/24 00:04:13;;;;;;;;;;;7.10;99.60;7.50;100371.00;;;;334028;29;83501;-91
2021/10/24 00:04:24;;;;;;;;;;;7.00;99.60;7.50;100378.00;;;;332219;29;91438;-92
2021/10/24 00:04:36;;;;;;;;;;;7.10;99.60;7.40;100374.00;;;;332716;29;83193;-89
2021/10/24 00:04:48;;;;;;;;;;;7.10;99.60;7.40;100371.00;;;;332194;29;92427;-89
2021/10/24 00:05:00;;;;;;;;;;;7.00;99.60;7.30;100376.00;;;;340505;28;83902;-89
2021/10/24 00:05:12;;;;;;;;;;;7.00;99.60;7.30;100380.00;;;;339095;28;89143;-90
2021/10/24 00:05:24;;;;;;;;;;;7.10;99.60;7.30;100376.00;;;;338246;28;82465;-90
2021/10/24 00:05:35;;;;;;;;;;;7.00;99.60;7.30;100373.00;;;;340375;28;91552;-95
2021/10/24 00:05:47;;;;;;;;;;;7.00;99.70;7.30;100380.00;;;;340723;28;82453;-93
2021/10/24 00:05:59;;;;;;;;;;;7.00;99.70;7.30;100382.00;;;;337653;28;91226;-91
2021/10/24 00:06:11;;;;;;;;;;;7.00;99.70;7.30;100380.00;;;;339426;28;83318;-92
2021/10/24 00:06:23;;;;;;;;;;;7.00;99.70;7.30;100381.00;;;;339146;28;88037;-91
2021/10/24 00:06:34;;;;;;;;;;;7.00;99.70;7.30;100380.00;;;;334022;29;83281;-92
2021/10/24 00:06:46;;;;;;;;;;;7.00;99.70;7.30;100381.00;;;;339068;28;92276;-92
2021/10/24 00:07:00;;;;;;;;;;;7.00;99.70;7.30;100382.00;;;;338053;28;82390;-92
2021/10/24 00:07:12;;;;;;;;;;;7.00;99.80;7.30;100384.00;;;;337830;28;91526;-91
2021/10/24 00:07:23;;;;;;;;;;;7.00;99.70;7.40;100377.00;;;;338106;28;83414;-91
2021/10/24 00:07:35;;;;;;;;;;;7.00;99.70;7.40;100382.00;;;;332251;29;91261;-92
2021/10/24 00:07:47;;;;;;;;;;;7.00;99.70;7.30;100387.00;;;;334051;29;83283;-91
2021/10/24 00:07:59;;;;;;;;;;;7.00;99.70;7.40;100373.00;;;;332281;28;91620;-92
2021/10/24 00:08:10;;;;;;;;;;;7.00;99.70;7.40;100374.00;;;;330284;29;82439;-92
2021/10/24 00:08:22;;;;;;;;;;;7.00;99.70;7.40;100378.00;;;;333584;29;90428;-92
2021/10/24 00:08:34;;;;;;;;;;;7.00;99.80;7.40;100381.00;;;;332624;29;83374;-92
2021/10/24 00:08:46;;;;;;;;;;;7.00;99.80;7.50;100380.00;;;;334923;29;92550;-91
2021/10/24 00:08:58;;;;;;;;;;;7.00;99.80;7.40;100379.00;;;;332715;29;83257;-92
2021/10/24 00:09:09;;;;;;;;;;;7.00;99.80;7.40;100386.00;;;;332410;28;90513;-92
2021/10/24 00:09:21;;;;;;;;;;;7.00;99.80;7.60;100371.00;;;;335420;29;83312;-91
2021/10/24 00:09:33;;;;;;;;;;;7.00;99.70;7.50;100368.00;;;;337871;28;91492;-92
2021/10/24 00:09:44;;;;;;;;;;;7.00;99.70;7.40;100386.00;;;;339371;28;83494;-92
2021/10/24 00:09:56;;;;;;;;;;;7.00;99.80;7.40;100375.00;;;;332768;29;90833;-92
2021/10/24 00:10:08;;;;;;;;;;;7.00;99.80;7.40;100384.00;;;;332670;29;83386;-92
2021/10/24 00:10:20;;;;;;;;;;;7.00;99.70;7.40;100380.00;;;;333538;29;91535;-92
2021/10/24 00:10:32;;;;;;;;;;;7.00;99.70;7.40;100382.00;;;;330142;29;83432;-91
2021/10/24 00:10:43;;;;;;;;;;;7.00;99.70;7.40;100380.00;;;;328513;29;92159;-91
2021/10/24 00:10:55;;;;;;;;;;;7.00;99.80;7.30;100374.00;;;;332671;29;83539;-91
2021/10/24 00:11:07;;;;;;;;;;;7.00;99.80;7.40;100370.00;;;;340366;28;90422;-92
2021/10/24 00:11:19;;;;;;;;;;;7.00;99.80;7.40;100383.00;;;;338244;28;82485;-92
2021/10/24 00:11:31;;;;;;;;;;;7.00;99.80;7.40;100383.00;;;;339065;28;91948;-92
2021/10/24 00:11:43;;;;;;;;;;;7.00;99.80;7.30;100380.00;;;;339435;28;83419;-92
2021/10/24 00:11:54;;;;;;;;;;;7.00;99.80;7.30;100376.00;;;;337500;28;90248;-91
2021/10/24 00:12:06;;;;;;;;;;;7.00;99.90;7.30;100377.00;;;;340666;28;83370;-92
2021/10/24 00:12:18;;;;;;;;;;;7.00;99.90;7.50;100381.00;;;;331117;29;91643;-92
2021/10/24 00:12:30;;;;;;;;;;;7.00;99.90;7.50;100374.00;;;;332647;29;82415;-92
2021/10/24 00:12:42;;;;;;;;;;;7.00;99.80;7.60;100374.00;;;;341721;28;91502;-91
2021/10/24 00:12:53;;;;;;;;;;;7.00;99.70;7.60;100372.00;;;;339284;28;83336;-92
2021/10/24 00:13:05;;;;;;;;;;;7.00;99.70;7.60;100377.00;;;;340215;28;90234;-92
2021/10/24 00:13:17;;;;;;;;;;;7.00;99.70;7.60;100379.00;;;;340623;28;83510;-93
2021/10/24 00:13:29;;;;;;;;;;;7.00;99.70;7.70;100374.00;;;;333661;29;91551;-91
2021/10/24 00:13:42;;;;;;;;;;;7.00;99.70;7.60;100373.00;;;;335238;29;83396;-91
2021/10/24 00:13:54;;;;;;;;;;;7.00;99.70;7.70;100375.00;;;;334861;29;90455;-92
2021/10/24 00:14:07;;;;;;;;;;;7.00;99.70;7.60;100382.00;;;;334004;29;83433;-92
2021/10/24 00:14:19;;;;;;;;;;;7.10;99.70;7.60;100369.00;;;;333677;29;91277;-92
2021/10/24 00:14:31;;;;;;;;;;;7.00;99.60;7.70;100379.00;;;;333997;29;83541;-91
2021/10/24 00:14:42;;;;;;;;;;;7.00;99.60;7.60;100376.00;;;;333517;28;92430;-92
2021/10/24 00:14:55;;;;;;;;;;;7.10;99.60;7.50;100375.00;;;;332799;29;83486;-92
2021/10/24 00:15:07;;;;;;;;;;;7.10;99.60;7.50;100376.00;;;;333635;29;90109;-91
2021/10/24 00:15:19;;;;;;;;;;;7.10;99.60;7.50;100373.00;;;;333982;29;83568;-91
2021/10/24 00:15:31;;;;;;;;;;;7.10;99.60;7.40;100381.00;;;;333643;28;90648;-91
2021/10/24 00:15:43;;;;;;;;;;;7.10;99.60;7.40;100378.00;;;;330057;29;83563;-91
2021/10/24 00:15:55;;;;;;;;;;;7.00;99.60;7.40;100381.00;;;;335273;28;90458;-91
2021/10/24 00:16:07;;;;;;;;;;;7.00;99.60;7.40;100375.00;;;;338192;28;82511;-92
2021/10/24 00:16:19;;;;;;;;;;;7.10;99.70;7.40;100377.00;;;;332205;29;92107;-91
2021/10/24 00:16:31;;;;;;;;;;;7.00;99.70;7.40;100382.00;;;;339392;28;83566;-91
2021/10/24 00:16:43;;;;;;;;;;;7.00;99.80;7.40;100379.00;;;;331046;29;92096;-91
2021/10/24 00:16:55;;;;;;;;;;;7.00;99.80;7.40;100376.00;;;;334444;29;83833;-91
2021/10/24 00:17:07;;;;;;;;;;;7.00;99.80;7.40;100370.00;;;;333496;29;90293;-91
2021/10/24 00:17:19;;;;;;;;;;;7.00;99.70;7.40;100374.00;;;;334941;29;83435;-91
2021/10/24 00:17:31;;;;;;;;;;;7.00;99.70;7.50;100371.00;;;;330968;29;90424;-91
2021/10/24 00:17:43;;;;;;;;;;;7.00;99.70;7.40;100373.00;;;;336938;28;83345;-91
2021/10/24 00:17:55;;;;;;;;;;;7.00;99.70;7.40;100374.00;;;;339048;28;91403;-91
2021/10/24 00:18:07;;;;;;;;;;;7.00;99.70;7.40;100377.00;;;;334076;29;83263;-91
2021/10/24 00:18:19;;;;;;;;;;;7.00;99.70;7.30;100377.00;;;;332176;29;90748;-92
2021/10/24 00:18:31;;;;;;;;;;;7.00;99.70;7.40;100372.00;;;;334053;29;82552;-91
2021/10/24 00:18:43;;;;;;;;;;;7.00;99.80;7.40;100380.00;;;;333466;29;92274;-91
2021/10/24 00:18:55;;;;;;;;;;;7.00;99.80;7.40;100370.00;;;;332564;29;82522;-91
2021/10/24 00:19:07;;;;;;;;;;;7.00;99.80;7.30;100375.00;;;;334893;28;90260;-91
2021/10/24 00:19:18;;;;;;;;;;;7.00;99.80;7.30;100377.00;;;;334002;29;83268;-91
2021/10/24 00:19:30;;;;;;;;;;;7.00;99.80;7.30;100377.00;;;;333559;29;91545;-91
2021/10/24 00:19:46;;;;;;;;;;;7.00;99.80;7.50;100374.00;;;;333954;29;83464;-92
2021/10/24 00:19:57;;;;;;;;;;;7.00;99.80;7.50;100375.00;;;;331101;29;90865;-91
2021/10/24 00:20:10;;;;;;;;;;;7.00;99.70;7.60;100373.00;;;;331518;29;82367;-92
2021/10/24 00:20:21;;;;;;;;;;;7.00;99.70;7.50;100372.00;;;;334976;29;88697;-91
2021/10/24 00:20:34;;;;;;;;;;;7.00;99.70;7.40;100372.00;;;;331430;29;83503;-91
2021/10/24 00:20:45;;;;;;;;;;;7.00;99.70;7.30;100377.00;;;;329831;29;91101;-92
2021/10/24 00:20:57;;;;;;;;;;;7.00;99.70;7.20;100379.00;;;;340853;28;83185;-91
2021/10/24 00:21:09;;;;;;;;;;;7.00;99.80;7.20;100369.00;;;;335082;29;91668;-91
2021/10/24 00:21:21;;;;;;;;;;;7.00;99.70;7.20;100369.00;;;;331345;29;83552;-91
2021/10/24 00:21:32;;;;;;;;;;;7.00;99.70;7.20;100370.00;;;;334983;29;91520;-91
2021/10/24 00:21:44;;;;;;;;;;;7.00;99.70;7.20;100372.00;;;;331490;29;82507;-91
2021/10/24 00:21:56;;;;;;;;;;;7.00;99.80;7.10;100371.00;;;;332735;29;91010;-91
2021/10/24 00:22:08;;;;;;;;;;;7.00;99.90;7.20;100370.00;;;;335398;29;83533;-91
2021/10/24 00:22:20;;;;;;;;;;;7.00;99.90;7.20;100363.00;;;;340178;28;89331;-91
2021/10/24 00:22:32;;;;;;;;;;;7.00;99.90;7.20;100375.00;;;;339410;28;83499;-91
2021/10/24 00:22:44;;;;;;;;;;;7.00;99.90;7.20;100366.00;;;;333540;29;91385;-91
2021/10/24 00:22:56;;;;;;;;;;;6.90;99.90;7.20;100371.00;;;;333919;29;83541;-91
2021/10/24 00:23:08;;;;;;;;;;;7.00;99.90;7.20;100368.00;;;;332194;29;91763;-91
2021/10/24 00:23:20;;;;;;;;;;;6.90;99.90;7.20;100378.00;;;;332664;28;83741;-91
2021/10/24 00:23:32;;;;;;;;;;;6.90;99.90;7.20;100373.00;;;;334910;28;90983;-91
2021/10/24 00:23:45;;;;;;;;;;;6.90;99.90;7.20;100375.00;;;;334008;29;83597;-91
2021/10/24 00:23:57;;;;;;;;;;;6.90;99.90;7.20;100370.00;;;;328615;28;90246;-91
2021/10/24 00:24:09;;;;;;;;;;;6.90;99.90;7.30;100374.00;;;;332621;29;83550;-91
2021/10/24 00:24:20;;;;;;;;;;;6.90;99.80;7.30;100369.00;;;;332269;29;90894;-92
2021/10/24 00:24:32;;;;;;;;;;;6.90;99.80;7.30;100364.00;;;;331342;29;83416;-91
2021/10/24 00:24:44;;;;;;;;;;;6.90;99.80;7.40;100373.00;;;;333585;29;90091;-91
2021/10/24 00:24:56;;;;;;;;;;;6.90;99.80;7.50;100374.00;;;;329031;29;83388;-91
2021/10/24 00:25:07;;;;;;;;;;;6.90;99.80;7.60;100367.00;;;;330993;29;89049;-92
2021/10/24 00:25:19;;;;;;;;;;;6.90;99.80;7.60;100378.00;;;;332660;29;83862;-91
2021/10/24 00:25:31;;;;;;;;;;;7.00;99.90;7.60;100380.00;;;;332320;28;91810;-91
2021/10/24 00:25:43;;;;;;;;;;;6.90;99.80;7.60;100372.00;;;;332758;28;83312;-91
2021/10/24 00:25:55;;;;;;;;;;;7.00;99.80;7.60;100375.00;;;;332352;29;90334;-91
2021/10/24 00:26:07;;;;;;;;;;;7.00;99.70;7.40;100373.00;;;;332649;29;83252;-91
2021/10/24 00:26:19;;;;;;;;;;;7.00;99.70;7.40;100378.00;;;;332238;29;91405;-91
2021/10/24 00:26:31;;;;;;;;;;;7.00;99.70;7.40;100379.00;;;;331411;29;83350;-91
2021/10/24 00:26:42;;;;;;;;;;;7.00;99.70;7.30;100378.00;;;;331036;29;90120;-91
2021/10/24 00:26:54;;;;;;;;;;;7.00;99.70;7.30;100371.00;;;;331499;29;83418;-91
2021/10/24 00:27:06;;;;;;;;;;;7.00;99.80;7.30;100369.00;;;;329781;29;91272;-91
2021/10/24 00:27:18;;;;;;;;;;;6.90;99.80;7.20;100375.00;;;;331489;29;83276;-91
2021/10/24 00:27:30;;;;;;;;;;;6.90;99.80;7.20;100371.00;;;;331116;29;87938;-90
2021/10/24 00:27:42;;;;;;;;;;;6.90;99.90;7.20;100377.00;;;;331443;29;83148;-90
2021/10/24 00:27:53;;;;;;;;;;;6.90;99.90;7.20;100372.00;;;;332518;29;90371;-91
2021/10/24 00:28:25;;;;;;;;;;;6.90;99.90;7.10;100382.00;;;;332333;29;83495;-91
2021/10/24 00:28:37;;;;;;;;;;;6.90;99.90;7.10;100385.00;;;;332368;29;91185;-90
2021/10/24 00:28:49;;;;;;;;;;;6.90;99.90;7.10;100381.00;;;;334103;29;83365;-90
2021/10/24 00:29:00;;;;;;;;;;;6.90;99.90;7.10;100380.00;;;;332213;29;91466;-91
2021/10/24 00:29:12;;;;;;;;;;;6.90;99.90;7.10;100372.00;;;;339377;28;83517;-91
2021/10/24 00:29:24;;;;;;;;;;;6.90;99.90;7.10;100378.00;;;;341748;28;91366;-91
2021/10/24 00:29:36;;;;;;;;;;;6.90;99.90;7.10;100373.00;;;;331473;29;83438;-91
2021/10/24 00:29:48;;;;;;;;;;;6.90;99.90;7.10;100378.00;;;;332316;28;91186;-91
2021/10/24 00:30:00;;;;;;;;;;;6.80;99.90;7.20;100375.00;;;;335354;29;83303;-91
2021/10/24 00:30:12;;;;;;;;;;;6.80;99.90;7.20;100383.00;;;;332255;29;90681;-91
2021/10/24 00:30:23;;;;;;;;;;;6.80;99.90;7.10;100379.00;;;;332678;29;82531;-90
2021/10/24 00:30:35;;;;;;;;;;;6.80;99.90;7.10;100381.00;;;;331069;29;91306;-91
2021/10/24 00:30:48;;;;;;;;;;;6.80;99.90;7.10;100376.00;;;;335267;28;83421;-90
2021/10/24 00:31:01;;;;;;;;;;;6.80;99.90;7.10;100373.00;;;;334634;28;92461;-90
2021/10/24 00:31:13;;;;;;;;;;;6.80;99.90;7.10;100386.00;;;;334033;29;82610;-91
2021/10/24 00:31:25;;;;;;;;;;;6.80;99.90;7.10;100387.00;;;;334863;29;91681;-91
2021/10/24 00:31:36;;;;;;;;;;;6.80;99.90;7.10;100382.00;;;;332709;29;83246;-91
2021/10/24 00:31:48;;;;;;;;;;;6.80;99.90;7.10;100386.00;;;;332266;29;90340;-91
2021/10/24 00:32:00;;;;;;;;;;;6.80;99.90;7.00;100382.00;;;;332728;28;83294;-90
2021/10/24 00:32:12;;;;;;;;;;;6.80;99.90;7.10;100381.00;;;;330860;29;91960;-91
2021/10/24 00:32:23;;;;;;;;;;;6.80;99.90;7.10;100384.00;;;;333985;29;82425;-91
2021/10/24 00:32:35;;;;;;;;;;;6.80;99.90;7.10;100376.00;;;;332348;29;90403;-91
2021/10/24 00:32:47;;;;;;;;;;;6.80;99.90;7.10;100379.00;;;;336933;28;82362;-91
2021/10/24 00:33:02;;;;;;;;;;;6.80;99.90;7.20;100376.00;;;;338984;28;92596;-91
2021/10/24 00:33:15;;;;;;;;;;;6.80;99.90;7.30;100376.00;;;;332807;29;83288;-90
2021/10/24 00:33:27;;;;;;;;;;;6.80;99.90;7.20;100373.00;;;;329792;29;91432;-91
2021/10/24 00:33:58;;;;;;;;;;;6.70;99.90;7.10;100387.00;;;;333927;29;82619;-91
2021/10/24 00:34:10;;;;;;;;;;;6.80;99.90;7.10;100385.00;;;;333569;29;90255;-92
2021/10/24 00:34:22;;;;;;;;;;;6.80;99.90;7.20;100386.00;;;;332614;29;83235;-91
2021/10/24 00:34:34;;;;;;;;;;;6.80;99.90;7.10;100381.00;;;;331056;29;91641;-91
2021/10/24 00:34:46;;;;;;;;;;;6.80;99.90;7.20;100384.00;;;;332600;29;82440;-91
2021/10/24 00:34:58;;;;;;;;;;;6.70;99.90;7.20;100385.00;;;;336232;28;90192;-91
2021/10/24 00:35:09;;;;;;;;;;;6.80;99.90;7.20;100377.00;;;;333892;29;83592;-91
2021/10/24 00:35:21;;;;;;;;;;;6.80;99.90;7.30;100377.00;;;;330898;29;91123;-91
2021/10/24 00:35:33;;;;;;;;;;;6.80;99.90;7.30;100386.00;;;;332677;29;83492;-91
2021/10/24 00:35:46;;;;;;;;;;;6.80;99.90;7.30;100381.00;;;;333521;29;91460;-91
2021/10/24 00:35:57;;;;;;;;;;;6.80;99.90;7.30;100380.00;;;;339565;28;82416;-91
2021/10/24 00:36:09;;;;;;;;;;;6.80;99.90;7.20;100379.00;;;;339045;28;90309;-92
2021/10/24 00:36:21;;;;;;;;;;;6.80;99.90;7.20;100379.00;;;;329929;29;83583;-91
2021/10/24 00:36:33;;;;;;;;;;;6.80;99.90;7.30;100384.00;;;;339110;28;91274;-91
2021/10/24 00:36:45;;;;;;;;;;;6.80;99.90;7.20;100384.00;;;;340837;28;82557;-92
2021/10/24 00:36:56;;;;;;;;;;;6.80;99.90;7.20;100385.00;;;;331997;29;91466;-91
2021/10/24 00:37:08;;;;;;;;;;;6.80;99.90;7.20;100385.00;;;;335254;29;83412;-92
2021/10/24 00:37:20;;;;;;;;;;;6.80;99.90;7.10;100380.00;;;;340295;28;92567;-91
2021/10/24 00:37:32;;;;;;;;;;;6.80;99.90;7.10;100381.00;;;;339075;28;83589;-91
2021/10/24 00:37:44;;;;;;;;;;;6.80;99.90;7.20;100379.00;;;;332428;29;91654;-91
2021/10/24 00:37:55;;;;;;;;;;;6.80;99.90;7.10;100381.00;;;;334042;29;83262;-90
2021/10/24 00:38:07;;;;;;;;;;;6.80;99.90;7.10;100376.00;;;;333663;28;90384;-91
2021/10/24 00:38:19;;;;;;;;;;;6.80;99.90;7.10;100387.00;;;;333727;29;83518;-92
2021/10/24 00:38:31;;;;;;;;;;;6.80;99.90;7.00;100386.00;;;;334979;29;89187;-91
2021/10/24 00:38:43;;;;;;;;;;;6.80;99.90;7.00;100382.00;;;;335407;29;82385;-91
2021/10/24 00:38:55;;;;;;;;;;;6.80;99.90;7.00;100370.00;;;;334734;29;90566;-91
2021/10/24 00:39:07;;;;;;;;;;;6.80;99.90;7.00;100384.00;;;;332659;29;83556;-91
2021/10/24 00:39:19;;;;;;;;;;;6.80;99.90;7.00;100384.00;;;;329575;29;92196;-91
2021/10/24 00:39:30;;;;;;;;;;;6.70;99.90;7.00;100391.00;;;;331470;29;83373;-92
2021/10/24 00:39:42;;;;;;;;;;;6.70;99.90;7.10;100380.00;;;;332180;29;91510;-91
2021/10/24 00:39:54;;;;;;;;;;;6.70;99.90;7.10;100386.00;;;;334005;29;82571;-91
2021/10/24 00:40:26;;;;;;;;;;;6.70;99.90;7.30;100389.00;;;;334643;29;91890;-91
2021/10/24 00:40:38;;;;;;;;;;;6.80;99.90;7.20;100386.00;;;;332733;28;83717;-91
2021/10/24 00:40:50;;;;;;;;;;;6.80;99.90;7.20;100380.00;;;;332337;29;92046;-91
2021/10/24 00:41:01;;;;;;;;;;;6.80;99.90;7.20;100374.00;;;;330089;29;82379;-91
2021/10/24 00:41:13;;;;;;;;;;;6.70;99.90;7.30;100376.00;;;;331075;29;91546;-92
2021/10/24 00:41:25;;;;;;;;;;;6.80;99.90;7.30;100382.00;;;;335321;29;82584;-92
2021/10/24 00:41:37;;;;;;;;;;;6.80;99.90;7.30;100387.00;;;;332197;29;92498;-91
2021/10/24 00:41:50;;;;;;;;;;;6.80;99.90;7.30;100383.00;;;;332817;29;82483;-91
2021/10/24 00:42:03;;;;;;;;;;;6.80;99.90;7.40;100379.00;;;;334912;29;91337;-91
2021/10/24 00:42:15;;;;;;;;;;;6.80;99.90;7.40;100387.00;;;;332770;29;83247;-91
2021/10/24 00:42:26;;;;;;;;;;;6.80;99.90;7.40;100385.00;;;;332197;29;90665;-90
2021/10/24 00:42:49;;;;;;;;;;;6.80;99.90;7.50;100385.00;;;;331443;29;83471;-91
2021/10/24 00:43:01;;;;;;;;;;;6.80;99.90;7.50;100381.00;;;;331149;28;89770;-91
2021/10/24 00:43:13;;;;;;;;;;;6.80;99.90;7.50;100381.00;;;;333856;28;83451;-91
2021/10/24 00:43:25;;;;;;;;;;;6.80;99.90;7.50;100381.00;;;;338505;28;89410;-91
2021/10/24 00:43:37;;;;;;;;;;;6.90;99.90;7.40;100384.00;;;;337957;28;83407;-92
2021/10/24 00:43:49;;;;;;;;;;;6.80;99.90;7.30;100380.00;;;;333548;28;91456;-91
2021/10/24 00:44:24;;;;;;;;;;;6.80;99.90;7.30;100382.00;;;;328937;29;83405;-91
2021/10/24 00:44:35;;;;;;;;;;;6.80;99.90;7.40;100373.00;;;;331088;28;90287;-91
2021/10/24 00:44:47;;;;;;;;;;;6.80;99.90;7.30;100381.00;;;;334085;29;82478;-91
2021/10/24 00:44:59;;;;;;;;;;;6.80;99.90;7.20;100380.00;;;;331095;29;91551;-91
2021/10/24 00:45:11;;;;;;;;;;;6.80;99.90;7.20;100375.00;;;;331384;29;83391;-91
2021/10/24 00:45:24;;;;;;;;;;;6.80;99.90;7.20;100375.00;;;;332219;29;91589;-91
2021/10/24 00:45:35;;;;;;;;;;;6.80;99.90;7.10;100383.00;;;;331285;29;82506;-91
2021/10/24 00:45:47;;;;;;;;;;;6.80;99.90;7.10;100384.00;;;;330987;29;90248;-91
2021/10/24 00:45:59;;;;;;;;;;;6.80;99.90;7.00;100386.00;;;;331458;28;83212;-91
2021/10/24 00:46:30;;;;;;;;;;;6.80;99.90;7.00;100384.00;;;;329685;29;91001;-91
2021/10/24 00:46:44;;;;;;;;;;;6.80;99.90;7.00;100387.00;;;;330174;29;83376;-91
2021/10/24 00:46:57;;;;;;;;;;;6.80;99.90;7.00;100384.00;;;;333321;29;92706;-91
2021/10/24 00:47:09;;;;;;;;;;;6.80;99.90;7.00;100378.00;;;;334045;29;82322;-91
2021/10/24 00:47:21;;;;;;;;;;;6.70;99.90;7.10;100383.00;;;;332337;28;91537;-91
2021/10/24 00:47:33;;;;;;;;;;;6.70;99.90;7.10;100382.00;;;;332646;29;83365;-91
2021/10/24 00:47:45;;;;;;;;;;;6.70;99.90;7.20;100385.00;;;;334612;29;90907;-91
2021/10/24 00:47:57;;;;;;;;;;;6.80;99.90;7.30;100389.00;;;;331400;29;83392;-91
2021/10/24 00:48:09;;;;;;;;;;;6.70;99.90;7.30;100387.00;;;;330918;29;91785;-91
2021/10/24 00:48:20;;;;;;;;;;;6.70;99.90;7.40;100382.00;;;;339434;28;83229;-91
2021/10/24 00:48:32;;;;;;;;;;;6.70;99.90;7.40;100381.00;;;;338878;28;92194;-91
2021/10/24 00:48:44;;;;;;;;;;;6.80;99.90;7.30;100383.00;;;;332638;29;83478;-91
2021/10/24 00:48:56;;;;;;;;;;;6.80;99.90;7.30;100387.00;;;;329775;29;92204;-91
2021/10/24 00:49:08;;;;;;;;;;;6.80;99.90;7.30;100386.00;;;;332278;29;82671;-91
2021/10/24 00:49:20;;;;;;;;;;;6.80;99.90;7.30;100381.00;;;;334874;29;90373;-91
2021/10/24 00:49:32;;;;;;;;;;;6.80;99.90;7.40;100390.00;;;;338100;28;83353;-91
2021/10/24 00:49:44;;;;;;;;;;;6.80;99.90;7.40;100376.00;;;;338911;28;91732;-91
2021/10/24 00:49:56;;;;;;;;;;;6.80;99.90;7.30;100382.00;;;;334727;28;82635;-91
2021/10/24 00:50:08;;;;;;;;;;;6.80;99.90;7.30;100382.00;;;;340378;28;91515;-91
2021/10/24 00:50:21;;;;;;;;;;;6.80;99.90;7.30;100383.00;;;;340762;28;83320;-91
2021/10/24 00:50:33;;;;;;;;;;;6.80;99.90;7.20;100385.00;;;;338952;28;92598;-91
2021/10/24 00:50:45;;;;;;;;;;;6.80;99.90;7.20;100384.00;;;;338029;28;83562;-90
2021/10/24 00:50:57;;;;;;;;;;;6.80;99.90;7.10;100384.00;;;;340216;28;92413;-91
2021/10/24 00:51:08;;;;;;;;;;;6.70;99.90;7.10;100383.00;;;;339544;28;82244;-91
2021/10/24 00:51:20;;;;;;;;;;;6.80;99.90;7.10;100384.00;;;;339061;28;90385;-91
2021/10/24 00:51:32;;;;;;;;;;;6.70;99.90;7.10;100388.00;;;;338162;28;82463;-91
2021/10/24 00:51:44;;;;;;;;;;;6.80;99.90;7.20;100378.00;;;;337702;28;89888;-91
2021/10/24 00:51:56;;;;;;;;;;;6.70;99.90;7.30;100385.00;;;;338105;28;82630;-91
2021/10/24 00:52:08;;;;;;;;;;;6.80;99.90;7.30;100383.00;;;;338993;28;91826;-91
2021/10/24 00:52:20;;;;;;;;;;;6.70;99.90;7.20;100391.00;;;;339222;28;83527;-91
2021/10/24 00:52:32;;;;;;;;;;;6.70;99.90;7.20;100385.00;;;;337723;28;89833;-91
2021/10/24 00:52:45;;;;;;;;;;;6.70;99.90;7.10;100385.00;;;;341943;28;83542;-91
2021/10/24 00:52:57;;;;;;;;;;;6.80;99.90;7.00;100384.00;;;;338854;28;90728;-91
2021/10/24 00:53:09;;;;;;;;;;;6.70;99.90;7.00;100387.00;;;;336911;28;82356;-91
2021/10/24 00:53:21;;;;;;;;;;;6.70;99.90;7.00;100384.00;;;;340436;28;88395;-91
2021/10/24 00:53:33;;;;;;;;;;;6.70;99.90;7.00;100383.00;;;;340770;28;83203;-91
2021/10/24 00:53:45;;;;;;;;;;;6.70;99.90;7.00;100383.00;;;;336303;28;91236;-91
2021/10/24 00:53:57;;;;;;;;;;;6.70;99.90;7.00;100394.00;;;;338002;28;83449;-90
2021/10/24 00:54:09;;;;;;;;;;;6.70;99.90;7.00;100385.00;;;;337697;28;92588;-91
2021/10/24 00:54:22;;;;;;;;;;;6.70;99.90;7.00;100386.00;;;;332610;29;83431;-90
2021/10/24 00:54:34;;;;;;;;;;;6.70;99.90;7.10;100381.00;;;;330995;29;92396;-91
2021/10/24 00:54:46;;;;;;;;;;;6.70;99.90;7.20;100384.00;;;;329947;29;83502;-91
2021/10/24 00:54:57;;;;;;;;;;;6.70;99.90;7.30;100380.00;;;;330825;29;91221;-91
2021/10/24 00:55:09;;;;;;;;;;;6.60;99.90;7.30;100384.00;;;;331214;29;83414;-91
2021/10/24 00:55:22;;;;;;;;;;;6.70;99.90;7.30;100381.00;;;;338847;28;90481;-90
2021/10/24 00:55:34;;;;;;;;;;;6.70;99.90;7.30;100385.00;;;;338168;28;83390;-89
2021/10/24 00:55:46;;;;;;;;;;;6.70;99.90;7.40;100383.00;;;;332202;29;91462;-89
2021/10/24 00:55:57;;;;;;;;;;;6.70;99.90;7.30;100383.00;;;;336743;28;83423;-88
2021/10/24 00:56:09;;;;;;;;;;;6.70;99.90;7.20;100384.00;;;;336375;28;92385;-89
2021/10/24 00:56:21;;;;;;;;;;;6.70;99.90;7.10;100383.00;;;;331490;29;82432;-89
2021/10/24 00:56:33;;;;;;;;;;;6.70;99.90;7.10;100376.00;;;;331057;29;89993;-89
2021/10/24 00:56:45;;;;;;;;;;;6.70;99.90;7.10;100379.00;;;;331418;29;83263;-89
2021/10/24 00:56:57;;;;;;;;;;;6.70;99.90;7.20;100379.00;;;;331065;29;90788;-89
2021/10/24 00:57:09;;;;;;;;;;;6.70;99.90;7.20;100376.00;;;;332759;29;83251;-89
2021/10/24 00:57:21;;;;;;;;;;;6.70;99.90;7.30;100381.00;;;;332352;29;88820;-89
2021/10/24 00:57:33;;;;;;;;;;;6.70;99.90;7.30;100376.00;;;;335061;29;83344;-89
2021/10/24 00:57:45;;;;;;;;;;;6.70;99.90;7.30;100377.00;;;;333562;29;91513;-89
2021/10/24 00:57:56;;;;;;;;;;;6.70;99.90;7.20;100381.00;;;;336578;28;82519;-88
2021/10/24 00:58:08;;;;;;;;;;;6.70;99.90;7.10;100379.00;;;;332075;29;91061;-89
2021/10/24 00:58:20;;;;;;;;;;;6.70;99.90;7.10;100377.00;;;;336507;28;83595;-89
2021/10/24 00:58:32;;;;;;;;;;;6.70;99.90;7.10;100383.00;;;;332245;29;92798;-88
2021/10/24 00:58:44;;;;;;;;;;;6.70;99.90;7.10;100383.00;;;;339461;28;83386;-90
2021/10/24 00:58:56;;;;;;;;;;;6.70;99.90;7.30;100379.00;;;;340387;28;91227;-89
2021/10/24 00:59:08;;;;;;;;;;;6.70;99.90;7.20;100380.00;;;;333948;29;83546;-90
2021/10/24 00:59:23;;;;;;;;;;;6.70;99.90;7.10;100382.00;;;;332399;29;88947;-89
2021/10/24 00:59:36;;;;;;;;;;;6.70;99.90;7.10;100380.00;;;;332728;29;83339;-90
2021/10/24 00:59:48;;;;;;;;;;;6.70;99.90;7.00;100378.00;;;;334873;29;89035;-89
2021/10/24 01:00:03;;;;;;;;;;;6.70;99.90;7.00;100384.00;;;;332823;29;83193;-89
2021/10/24 01:00:14;;;;;;;;;;;6.70;99.90;7.00;100375.00;;;;330893;29;90299;-88
2021/10/24 01:00:26;;;;;;;;;;;6.70;99.90;7.00;100380.00;;;;332502;29;83415;-90
2021/10/24 01:00:38;;;;;;;;;;;6.70;99.90;7.00;100382.00;;;;330950;29;92027;-90
2021/10/24 01:00:50;;;;;;;;;;;6.70;99.90;7.00;100377.00;;;;332735;29;83488;-89
2021/10/24 01:01:03;;;;;;;;;;;6.70;99.90;7.00;100379.00;;;;333563;29;90388;-89
2021/10/24 01:01:15;;;;;;;;;;;6.60;99.90;7.00;100382.00;;;;336612;28;82274;-89
2021/10/24 01:01:27;;;;;;;;;;;6.70;99.90;7.00;100382.00;;;;333602;28;91031;-90
2021/10/24 01:01:39;;;;;;;;;;;6.70;99.90;6.90;100376.00;;;;335276;29;83440;-89
2021/10/24 01:01:51;;;;;;;;;;;6.60;99.90;7.00;100382.00;;;;333080;29;89986;-90